Latest Weather Observations for Roxby Downs

IDS60801

Issued at 5:01 pm CST Friday 29 July 2016 (issued every 30 minutes, with the page automatically refreshed every 10 minutes)

About weather observations | Map of weather stations | Latest weather observations for SA | Other Formats
Station Details ID: 016096 Name: OLYMPIC DAM AERODROME Lat: -30.48 Lon: 136.88 Height: 98.5 m
Data from the previous 72 hours. | See also: Recent months at Roxby Downs
Date/Time
CST
Temp
°C
App
Temp
°C
Dew
Point
°C
Rel
Hum
%
Delta-T
°C
Wind Press
QNH
hPa
Press
MSL
hPa
Rain since
9am
mm
Dir  Spd
km/h
Gust
km/h
Spd
kts
Gust
kts
29/05:00pm 18.5 15.2 2.4 34 7.4 N 9 15 5 8 1022.3 1022.4 0.0
29/04:30pm 19.5 16.2 2.4 32 7.9 NNW 9 17 5 9 1022.4 1022.5 0.0
29/04:00pm 19.6 15.9 2.5 32 8.0 NNW 11 17 6 9 1022.5 1022.6 0.0
29/03:30pm 19.6 15.6 2.9 33 7.8 NW 13 20 7 11 1022.6 1022.7 0.0
29/03:00pm 19.6 15.9 2.5 32 7.9 NNW 11 20 6 11 1022.9 1023.0 0.0
29/02:30pm 19.8 16.2 3.1 33 7.8 NW 11 19 6 10 1023.2 1023.3 0.0
29/02:00pm 19.4 15.8 2.7 33 7.8 NW 11 20 6 11 1023.5 1023.6 0.0
29/01:30pm 18.9 15.1 3.9 37 7.1 NNW 13 20 7 11 1024.0 1024.1 0.0
29/01:00pm 18.1 14.2 3.6 38 6.8 NNW 13 20 7 11 1024.5 1024.6 0.0
29/12:30pm 18.3 14.5 4.1 39 6.7 N 13 24 7 13 1025.2 1025.3 0.0
29/12:00pm 17.6 13.4 3.9 40 6.4 N 15 24 8 13 1025.7 1025.9 0.0
29/11:30am 16.9 13.1 3.9 42 6.1 N 13 19 7 10 1026.3 1026.5 0.0
29/11:00am 16.1 12.4 4.5 46 5.5 NNE 13 17 7 9 1026.7 1026.8 0.0
29/10:30am 15.0 12.0 4.1 48 5.0 NNE 9 13 5 7 1027.3 1027.4 0.0
29/10:00am 14.1 11.0 3.8 50 4.7 NNE 9 11 5 6 1027.3 1027.4 0.0
29/09:30am 12.7 10.7 4.2 56 3.8 NE 4 7 2 4 1027.4 1027.5 0.0
29/09:00am 10.7 8.2 3.5 61 3.2 NE 6 9 3 5 1027.4 1027.5 0.0
29/08:30am 7.8 5.9 3.1 72 2.0 NE 2 9 1 5 1027.0 1027.1 0.0
29/08:00am 3.8 0.9 1.2 83 1.0 SSE 6 7 3 4 1027.0 1027.1 0.0
29/07:30am 2.0 -1.3 0.1 87 0.7 SSE 7 9 4 5 1026.7 1026.8 0.0
29/07:00am 0.8 -1.3 -0.8 89 0.6 CALM 0 0 0 0 1026.1 1026.3 0.0
29/06:30am 0.8 -2.5 -1.1 87 0.7 ENE 6 9 3 5 1025.7 1025.9 0.0
29/06:00am 0.5 -1.7 -1.6 86 0.8 CALM 0 0 0 0 1025.9 1026.1 0.0
29/05:30am 1.0 -2.3 -1.1 86 0.7 NE 6 7 3 4 1025.5 1025.6 0.0
29/05:00am 0.7 -1.5 -1.5 85 0.8 CALM 0 0 0 0 1025.6 1025.7 0.0
29/04:30am 1.0 -1.2 -1.2 85 0.8 CALM 0 0 0 0 1025.5 1025.6 0.0
29/04:00am 1.4 -0.7 -1.0 84 0.9 CALM 0 0 0 0 1025.6 1025.7 0.0
29/03:30am 1.6 -1.3 -0.8 84 0.9 NNE 4 6 2 3 1025.6 1025.7 0.0
29/03:00am 2.0 -0.1 -0.9 81 1.0 CALM 0 0 0 0 1025.7 1025.9 0.0
29/02:30am 2.6 0.6 0.0 83 1.0 CALM 0 0 0 0 1025.9 1026.1 0.0
29/02:00am 2.9 -0.1 0.5 84 0.9 NNE 6 7 3 4 1026.1 1026.3 0.0
29/01:30am 3.1 -0.1 -0.2 79 1.2 ENE 6 7 3 4 1026.3 1026.5 0.0
29/01:00am 3.5 0.2 0.0 78 1.3 NNE 7 7 4 4 1026.6 1026.7 0.0
29/12:30am 4.4 1.2 0.7 77 1.4 N 7 7 4 4 1026.8 1026.9 0.0
29/12:00am 4.8 1.6 0.6 74 1.6 NNE 7 9 4 5 1026.8 1026.9 0.0
 
Date/Time
CST
Temp
°C
App
Temp
°C
Dew
Point
°C
Rel
Hum
%
Delta-T
°C
Wind Press
QNH
hPa
Press
MSL
hPa
Rain since
9am
mm
Dir  Spd
km/h
Gust
km/h
Spd
kts
Gust
kts
28/11:30pm 5.0 1.9 1.3 77 1.5 NE 7 9 4 5 1026.9 1027.0 0.0
28/11:00pm 5.3 2.2 1.6 77 1.5 E 7 7 4 4 1027.1 1027.2 0.0
28/10:30pm 5.7 2.9 1.8 76 1.6 SSE 6 9 3 5 1027.3 1027.4 0.0
28/10:00pm 5.5 3.7 1.2 74 1.7 CALM 0 0 0 0 1027.4 1027.5 0.0
28/09:30pm 6.3 4.6 1.8 73 1.8 CALM 0 0 0 0 1027.7 1027.8 0.0
28/09:00pm 7.0 5.3 1.9 70 2.1 CALM 0 0 0 0 1027.9 1028.0 0.0
28/08:30pm 8.1 6.2 2.6 68 2.3 N 2 6 1 3 1027.6 1027.7 0.0
28/08:00pm 8.9 6.1 3.1 67 2.5 NNW 7 9 4 5 1027.5 1027.6 0.0
28/07:30pm 9.1 7.6 2.9 65 2.6 CALM 0 0 0 0 1027.3 1027.4 0.0
28/07:00pm 10.4 8.9 3.0 60 3.2 CALM 0 0 0 0 1027.3 1027.4 0.0
28/06:30pm 11.7 10.3 3.5 57 3.6 CALM 0 0 0 0 1027.3 1027.4 0.0
28/06:00pm 13.9 12.6 3.9 51 4.5 CALM 0 0 0 0 1027.0 1027.1 0.0
28/05:30pm 16.3 14.9 3.7 43 5.8 CALM 0 2 0 1 1027.0 1027.1 0.0
28/05:00pm 17.2 15.3 3.1 39 6.5 S 2 7 1 4 1026.9 1027.0 0.0
28/04:30pm 18.1 16.3 3.6 38 6.8 WNW 2 9 1 5 1026.9 1027.0 0.0
28/04:00pm 17.9 14.8 3.4 38 6.8 WNW 9 17 5 9 1026.9 1027.0 0.0
28/03:30pm 17.9 15.2 3.8 39 6.6 NNW 7 13 4 7 1027.0 1027.1 0.0
28/03:00pm 18.0 15.4 4.2 40 6.5 N 7 13 4 7 1027.3 1027.4 0.0
28/02:30pm 17.7 14.3 3.9 40 6.5 NW 11 17 6 9 1027.5 1027.6 0.0
28/02:00pm 17.2 13.7 3.5 40 6.4 NW 11 17 6 9 1028.1 1028.2 0.0
28/01:30pm 17.0 13.5 3.7 41 6.2 NW 11 17 6 9 1028.5 1028.6 0.0
28/01:00pm 17.2 14.8 4.5 43 6.0 NNW 6 9 3 5 1028.9 1029.0 0.0
28/12:30pm 16.9 14.3 4.3 43 5.9 NNW 7 15 4 8 1029.3 1029.4 0.0
28/12:00pm 16.9 14.6 5.5 47 5.5 NNE 7 11 4 6 1029.9 1030.0 0.0
28/11:30am 15.5 12.6 4.8 49 5.0 ENE 9 20 5 11 1030.5 1030.6 0.0
28/11:00am 15.2 12.4 5.1 51 4.8 NE 9 11 5 6 1030.9 1031.0 0.0
28/10:30am 15.0 11.8 5.2 52 4.6 ENE 11 17 6 9 1031.0 1031.1 0.0
28/10:00am 14.4 11.7 5.5 55 4.2 E 9 13 5 7 1031.3 1031.4 0.0
28/09:30am 12.8 10.3 5.0 59 3.6 ESE 7 11 4 6 1031.3 1031.4 0.0
28/09:00am 10.4 9.3 5.2 70 2.4 CALM 0 0 0 0 1031.3 1031.4 0.0
28/08:30am 6.5 5.1 3.5 81 1.3 CALM 0 0 0 0 1031.0 1031.1 0.0
28/08:00am 3.8 0.9 2.6 92 0.5 S 7 7 4 4 1030.8 1030.9 0.0
28/07:30am 2.0 -1.0 1.1 94 0.3 SW 6 7 3 4 1030.5 1030.6 0.0
28/07:00am 0.9 -2.3 -0.4 91 0.5 S 6 7 3 4 1029.8 1029.9 0.0
28/06:30am 0.9 -2.3 -0.7 89 0.6 SSE 6 7 3 4 1029.3 1029.4 0.0
28/06:00am 1.5 -1.6 0.2 91 0.5 SE 6 7 3 4 1029.2 1029.3 0.0
28/05:30am 1.4 -1.9 -0.2 89 0.6 SSE 7 9 4 5 1029.1 1029.2 0.0
28/05:00am 1.8 -1.5 0.2 89 0.6 S 7 9 4 5 1028.9 1029.0 0.0
28/04:30am 2.4 -0.5 1.2 92 0.5 S 6 7 3 4 1028.7 1028.8 0.0
28/04:00am 1.4 -2.0 -0.4 88 0.7 S 7 7 4 4 1028.7 1028.8 0.0
28/03:30am 1.5 -1.9 -0.6 86 0.8 S 7 7 4 4 1028.5 1028.6 0.0
28/03:00am 2.1 0.2 0.3 88 0.7 CALM 0 0 0 0 1028.5 1028.6 0.0
28/02:30am 2.3 0.3 0.2 86 0.8 CALM 0 0 0 0 1028.5 1028.6 0.0
28/02:00am 2.7 0.8 0.6 86 0.8 CALM 0 0 0 0 1028.4 1028.5 0.0
28/01:30am 3.6 1.5 1.5 86 0.8 S 2 6 1 3 1028.3 1028.4 0.0
28/01:00am 3.6 0.7 1.5 86 0.8 SSW 6 7 3 4 1028.2 1028.3 0.0
28/12:30am 3.6 0.5 1.2 84 0.9 S 7 7 4 4 1028.0 1028.1 0.0
28/12:00am 3.8 0.8 1.0 82 1.1 S 6 7 3 4 1028.0 1028.1 0.0
 
Date/Time
CST
Temp
°C
App
Temp
°C
Dew
Point
°C
Rel
Hum
%
Delta-T
°C
Wind Press
QNH
hPa
Press
MSL
hPa
Rain since
9am
mm
Dir  Spd
km/h
Gust
km/h
Spd
kts
Gust
kts
27/11:30pm 4.1 0.9 1.0 80 1.2 SE 7 9 4 5 1027.9 1028.0 0.0
27/11:00pm 4.6 1.7 1.6 81 1.2 SE 6 6 3 3 1028.2 1028.3 0.0
27/10:30pm 5.0 2.2 1.8 80 1.3 SE 6 7 3 4 1028.3 1028.4 0.0
27/10:00pm 5.5 3.8 1.8 77 1.5 CALM 0 0 0 0 1028.4 1028.5 0.0
27/09:30pm 6.4 4.7 1.9 73 1.8 CALM 0 0 0 0 1028.7 1028.8 0.0
27/09:00pm 6.9 4.5 2.4 73 1.8 SSW 4 7 2 4 1028.9 1029.0 0.0
27/08:30pm 8.0 5.6 2.3 67 2.4 SSE 4 7 2 4 1028.7 1028.8 0.0
27/08:00pm 9.4 6.3 3.6 67 2.5 SSW 9 11 5 6 1028.4 1028.5 0.0
27/07:30pm 10.7 7.9 3.3 60 3.2 SSW 7 11 4 6 1028.4 1028.5 0.0
27/07:00pm 11.6 8.5 3.4 57 3.6 S 9 9 5 5 1028.1 1028.2 0.0
27/06:30pm 12.9 9.8 3.6 53 4.2 S 9 13 5 7 1027.7 1027.8 0.0
27/06:00pm 14.1 10.6 3.6 49 4.7 S 11 15 6 8 1027.5 1027.6 0.0
27/05:30pm 15.3 11.0 3.5 45 5.4 S 15 19 8 10 1027.1 1027.2 0.0
27/05:00pm 16.1 11.5 3.9 44 5.7 SSW 17 22 9 12 1026.8 1026.9 0.0
27/04:30pm 16.6 11.5 4.0 43 5.9 SSW 20 28 11 15 1026.3 1026.5 0.0
27/04:00pm 16.9 12.3 3.9 42 6.1 SSW 17 24 9 13 1026.1 1026.3 0.0
27/03:30pm 16.8 11.3 3.8 42 6.0 S 22 30 12 16 1025.8 1026.0 0.0
27/03:00pm 17.1 12.3 4.4 43 6.0 SW 19 30 10 16 1025.7 1025.9 0.0
27/02:30pm 16.5 11.6 4.2 44 5.7 SSW 19 24 10 13 1025.5 1025.6 0.0
27/02:00pm 15.9 11.3 3.7 44 5.6 S 17 24 9 13 1025.6 1025.7 0.0
27/01:30pm 16.0 11.2 4.4 46 5.4 SSW 19 28 10 15 1025.8 1026.0 0.0
27/01:00pm 16.0 10.6 4.4 46 5.5 S 22 30 12 16 1026.1 1026.3 0.0
27/12:30pm 15.4 9.6 4.2 47 5.2 S 24 33 13 18 1026.6 1026.7 0.0
27/12:00pm 15.3 9.4 4.1 47 5.2 S 24 35 13 19 1026.9 1027.0 0.0
27/11:30am 15.4 9.7 5.0 50 4.9 S 24 33 13 18 1027.0 1027.1 0.0
27/11:00am 15.1 9.8 5.0 51 4.8 SSW 22 33 12 18 1027.0 1027.1 0.0
27/10:30am 14.2 7.6 4.2 51 4.6 S 28 37 15 20 1026.8 1026.9 0.0
27/10:00am 13.1 6.2 4.5 56 4.0 SSW 30 39 16 21 1026.6 1026.7 0.0
27/09:30am 13.0 7.3 4.7 57 3.8 SSW 24 35 13 19 1026.0 1026.2 0.0
27/09:00am 13.1 6.9 4.5 56 3.9 SSW 26 35 14 19 1025.5 1025.6 0.0
27/08:30am 12.2 7.4 5.6 64 3.1 SSW 20 30 11 16 1025.1 1025.2 0.0
27/08:00am 12.0 6.4 5.4 64 3.1 SSW 24 32 13 17 1024.5 1024.6 0.0
27/07:30am 11.5 6.7 5.6 67 2.7 SSW 20 24 11 13 1023.7 1023.8 0.0
27/07:00am 11.4 6.9 6.3 71 2.4 SW 19 26 10 14 1023.3 1023.4 0.0
27/06:30am 11.4 7.1 7.7 78 1.8 SW 20 26 11 14 1023.0 1023.1 0.0
27/06:00am 11.4 7.3 7.7 78 1.8 SW 19 28 10 15 1022.6 1022.7 0.0
27/05:30am 11.3 7.3 8.2 81 1.5 SW 19 24 10 13 1022.4 1022.5 0.0
27/05:00am 11.1 8.0 8.7 85 1.2 SW 15 20 8 11 1022.0 1022.1 0.0
27/04:30am 10.8 7.3 8.9 88 0.9 SW 17 24 9 13 1021.7 1021.8 0.0
27/04:00am 10.1 7.5 9.2 94 0.4 WSW 13 17 7 9 1021.8 1021.9 0.0
27/03:30am 10.5 7.9 9.4 93 0.5 WSW 13 19 7 10 1021.5 1021.6 0.0
27/03:07am 10.8 8.0 9.9 94 0.5 WSW 15 22 8 12 1021.4 1021.5 0.0
27/03:00am 10.9 7.7 10.1 95 0.4 SW 17 24 9 13 1021.4 1021.5 0.0
27/02:49am 11.1 7.4 10.0 93 0.6 SSW 20 26 11 14 1021.9 1022.0 0.0
27/02:30am 11.5 7.8 9.4 87 1.1 SW 19 28 10 15 1021.6 1021.7 0.0
27/02:00am 11.6 5.9 8.5 81 1.5 WSW 28 37 15 20 1021.6 1021.7 0.0
27/01:30am 11.5 7.2 5.4 66 2.8 WSW 17 22 9 12 1021.3 1021.4 0.0
27/01:00am 11.6 7.5 4.6 62 3.2 W 15 22 8 12 1021.1 1021.2 0.0
27/12:30am 11.8 7.3 4.3 60 3.4 W 17 24 9 13 1021.0 1021.1 0.0
27/12:00am 12.3 7.2 4.3 58 3.6 W 20 28 11 15 1020.8 1020.9 0.0
 
Date/Time
CST
Temp
°C
App
Temp
°C
Dew
Point
°C
Rel
Hum
%
Delta-T
°C
Wind Press
QNH
hPa
Press
MSL
hPa
Rain since
9am
mm
Dir  Spd
km/h
Gust
km/h
Spd
kts
Gust
kts
26/11:30pm 12.2 7.7 4.2 58 3.6 WNW 17 20 9 11 1020.8 1020.9 0.0
26/11:00pm 11.8 7.7 4.1 59 3.5 WNW 15 20 8 11 1020.7 1020.8 0.0
26/10:30pm 12.4 7.8 3.9 56 3.8 WNW 17 22 9 12 1020.6 1020.7 0.0
26/10:00pm 12.8 8.3 4.0 55 4.0 WNW 17 24 9 13 1020.4 1020.5 0.0
26/09:30pm 13.1 8.2 4.0 54 4.1 W 19 26 10 14 1020.5 1020.6 0.0
26/09:00pm 12.5 8.3 3.7 55 3.9 W 15 20 8 11 1020.3 1020.4 0.0
26/08:30pm 12.4 8.2 3.6 55 3.9 WNW 15 19 8 10 1020.1 1020.2 0.0
26/08:00pm 12.1 8.2 3.6 56 3.8 WNW 13 15 7 8 1019.8 1019.9 0.0
26/07:30pm 12.7 9.6 3.6 54 4.1 WNW 9 11 5 6 1019.5 1019.6 0.0
26/07:00pm 13.8 10.3 3.6 50 4.6 W 11 15 6 8 1019.4 1019.5 0.0
26/06:30pm 14.9 10.3 3.7 47 5.1 WSW 17 22 9 12 1019.1 1019.2 0.0
26/06:00pm 15.8 10.8 3.6 44 5.6 WSW 19 26 10 14 1018.6 1018.7 0.0
26/05:30pm 16.8 10.5 3.5 41 6.2 W 26 37 14 20 1018.1 1018.2 0.0

Other Formats:

Comma delimited format used in spreadsheet applications
http://www.bom.gov.au/fwo/IDS60801/IDS60801.95658.axf

JavaScript Object Notation format (JSON) in row-major order
http://www.bom.gov.au/fwo/IDS60801/IDS60801.95658.json